Time;durP1;ratioP1;P1;durP2;ratioP2;P2;SDS_P1;SDS_P2;PMS_P1;PMS_P2;Temp;Humidity;BMP_temperature;BMP_pressure;BME280_temperature;BME280_humidity;BME280_pressure;Samples;Min_cycle;Max_cycle;Signal;HPM_P1;HPM_P2
2023/03/18 00:02:07;;;;;;;5.38;3.45;;;;;;;;;;5050960;28;20449;-65
2023/03/18 00:04:33;;;;;;;3.95;3.25;;;;;;;;;;5050648;28;20115;-65
2023/03/18 00:06:58;;;;;;;9.05;3.55;;;;;;;;;;5050463;28;20053;-65
2023/03/18 00:09:24;;;;;;;5.50;3.45;;;;;;;;;;5050632;28;20155;-66
2023/03/18 00:11:50;;;;;;;4.35;3.45;;;;;;;;;;5050558;28;20044;-66
2023/03/18 00:14:17;;;;;;;5.03;3.20;;;;;;;;;;5050566;28;20112;-66
2023/03/18 00:16:44;;;;;;;7.72;3.53;;;;;;;;;;5050832;28;20056;-65
2023/03/18 00:19:10;;;;;;;5.18;3.70;;;;;;;;;;5050728;28;20025;-66
2023/03/18 00:21:36;;;;;;;6.07;3.30;;;;;;;;;;5050477;28;20389;-66
2023/03/18 00:24:02;;;;;;;7.25;4.03;;;;;;;;;;5050421;28;20101;-65
2023/03/18 00:26:28;;;;;;;6.40;3.50;;;;;;;;;;5050617;28;20118;-65
2023/03/18 00:28:57;;;;;;;5.57;3.70;;;;;;;;;;5053349;28;20775;-65
2023/03/18 00:31:24;;;;;;;6.37;3.60;;;;;;;;;;5054754;28;20440;-66
2023/03/18 00:33:50;;;;;;;5.10;3.45;;;;;;;;;;5054229;28;20068;-66
2023/03/18 00:36:17;;;;;;;4.78;3.10;;;;;;;;;;5054665;28;20104;-65
2023/03/18 00:38:45;;;;;;;4.78;3.30;;;;;;;;;;5054265;28;20049;-66
2023/03/18 00:41:14;;;;;;;5.00;3.67;;;;;;;;;;5054131;28;20538;-66
2023/03/18 00:43:51;;;;;;;4.68;3.38;;;;;;;;;;5054109;28;20044;-66
2023/03/18 00:46:19;;;;;;;5.35;3.30;;;;;;;;;;5054348;28;20420;-66
2023/03/18 00:48:45;;;;;;;6.13;3.67;;;;;;;;;;5054059;28;20051;-65
2023/03/18 00:51:15;;;;;;;4.95;3.45;;;;;;;;;;5054214;28;20100;-65
2023/03/18 00:53:42;;;;;;;4.25;3.25;;;;;;;;;;5054006;28;20033;-66
2023/03/18 00:56:07;;;;;;;5.47;3.67;;;;;;;;;;5053653;28;20421;-66
2023/03/18 00:58:35;;;;;;;7.20;3.78;;;;;;;;;;5054197;28;20067;-66
2023/03/18 01:01:02;;;;;;;5.50;3.45;;;;;;;;;;5053732;28;20017;-65
2023/03/18 01:03:27;;;;;;;6.03;3.78;;;;;;;;;;5054029;28;20357;-66
2023/03/18 01:05:53;;;;;;;6.43;3.60;;;;;;;;;;5053680;28;20028;-66
2023/03/18 01:08:20;;;;;;;4.18;3.25;;;;;;;;;;5053626;28;20469;-66
2023/03/18 01:10:47;;;;;;;5.30;3.40;;;;;;;;;;5053491;28;20551;-66
2023/03/18 01:13:13;;;;;;;4.32;3.22;;;;;;;;;;5053606;28;20055;-66
2023/03/18 01:15:40;;;;;;;7.30;3.50;;;;;;;;;;5053497;28;20029;-66
2023/03/18 01:18:07;;;;;;;4.95;3.25;;;;;;;;;;5053700;28;20037;-66
2023/03/18 01:20:33;;;;;;;4.97;3.33;;;;;;;;;;5053792;28;20040;-66
2023/03/18 01:23:00;;;;;;;5.30;3.30;;;;;;;;;;5053624;28;20029;-65
2023/03/18 01:25:26;;;;;;;6.43;3.50;;;;;;;;;;5054990;28;20155;-66
2023/03/18 01:27:52;;;;;;;4.55;3.35;;;;;;;;;;5054832;28;20111;-66
2023/03/18 01:30:19;;;;;;;5.35;3.38;;;;;;;;;;5052923;28;20036;-65
2023/03/18 01:32:45;;;;;;;4.65;3.42;;;;;;;;;;5053712;28;20037;-66
2023/03/18 01:35:11;;;;;;;5.75;3.35;;;;;;;;;;5053736;28;20017;-65
2023/03/18 01:37:37;;;;;;;6.28;3.50;;;;;;;;;;5053587;28;20021;-66
2023/03/18 01:40:05;;;;;;;4.00;3.20;;;;;;;;;;5052887;28;20493;-66
2023/03/18 01:42:31;;;;;;;5.07;3.60;;;;;;;;;;5054272;28;20087;-65
2023/03/18 01:45:28;;;;;;;4.95;3.47;;;;;;;;;;5053113;28;20098;-65
2023/03/18 01:47:56;;;;;;;4.45;3.13;;;;;;;;;;5049471;28;20653;-65
2023/03/18 01:50:26;;;;;;;5.15;3.38;;;;;;;;;;5053918;28;20060;-66
2023/03/18 01:52:54;;;;;;;;;;;;;;;;;;5054762;28;20108;-66
2023/03/18 01:55:25;;;;;;;4.65;3.40;;;;;;;;;;5054433;28;20384;-66
2023/03/18 01:57:51;;;;;;;5.28;3.55;;;;;;;;;;5053757;28;20477;-67
2023/03/18 02:00:18;;;;;;;5.93;3.50;;;;;;;;;;5054048;28;20021;-66
2023/03/18 02:02:46;;;;;;;6.53;3.50;;;;;;;;;;5054245;28;20075;-66
2023/03/18 02:05:17;;;;;;;5.68;3.35;;;;;;;;;;5054177;28;20469;-66
2023/03/18 02:07:44;;;;;;;6.30;3.90;;;;;;;;;;5054389;28;20033;-66
2023/03/18 02:10:22;;;;;;;5.80;3.67;;;;;;;;;;5054211;28;20025;-66
2023/03/18 02:12:55;;;;;;;5.07;3.47;;;;;;;;;;5054111;28;20107;-66
2023/03/18 02:15:23;;;;;;;5.03;3.40;;;;;;;;;;5054096;28;20494;-66
2023/03/18 02:18:12;;;;;;;6.75;3.72;;;;;;;;;;5054026;28;20079;-66
2023/03/18 02:20:50;;;;;;;4.20;3.40;;;;;;;;;;5053658;28;20048;-66
2023/03/18 02:23:28;;;;;;;5.70;3.85;;;;;;;;;;5053911;28;20079;-65
2023/03/18 02:26:15;;;;;;;6.38;3.92;;;;;;;;;;5053891;28;20031;-66
2023/03/18 02:28:42;;;;;;;4.10;3.38;;;;;;;;;;5054006;28;20365;-66
2023/03/18 02:31:11;;;;;;;4.95;3.47;;;;;;;;;;5053730;28;20083;-65
2023/03/18 02:33:39;;;;;;;4.35;3.33;;;;;;;;;;5053822;28;20025;-66
2023/03/18 02:36:10;;;;;;;4.78;3.30;;;;;;;;;;5053613;28;20021;-66
2023/03/18 02:38:40;;;;;;;5.13;3.40;;;;;;;;;;5052364;28;20416;-66
2023/03/18 02:41:12;;;;;;;4.97;3.63;;;;;;;;;;5053531;28;20036;-66
2023/03/18 02:43:38;;;;;;;5.32;3.30;;;;;;;;;;5053576;28;20093;-65
2023/03/18 02:46:31;;;;;;;5.40;3.50;;;;;;;;;;5053462;28;20033;-67
2023/03/18 02:49:02;;;;;;;4.10;3.22;;;;;;;;;;5053381;28;20029;-66
2023/03/18 02:51:28;;;;;;;4.60;3.55;;;;;;;;;;5053144;28;20116;-65
2023/03/18 02:54:10;;;;;;;5.03;3.45;;;;;;;;;;5053396;28;20028;-65
2023/03/18 02:56:37;;;;;;;4.50;3.38;;;;;;;;;;5053215;28;20532;-66
2023/03/18 02:59:03;;;;;;;4.95;3.58;;;;;;;;;;5053228;28;20025;-65
2023/03/18 03:01:30;;;;;;;4.22;3.40;;;;;;;;;;5053254;28;20021;-65
2023/03/18 03:03:56;;;;;;;4.10;3.30;;;;;;;;;;5053253;28;20092;-65
2023/03/18 03:06:21;;;;;;;4.97;3.60;;;;;;;;;;5053169;28;20029;-65
2023/03/18 03:08:47;;;;;;;5.13;3.40;;;;;;;;;;5053279;28;20083;-65
2023/03/18 03:11:13;;;;;;;5.82;3.78;;;;;;;;;;5053311;28;20025;-65
2023/03/18 03:13:44;;;;;;;5.57;3.60;;;;;;;;;;5052950;28;20513;-65
2023/03/18 03:16:11;;;;;;;4.85;3.30;;;;;;;;;;5052913;28;20032;-65
2023/03/18 03:18:37;;;;;;;5.07;3.45;;;;;;;;;;5052811;28;20116;-65
2023/03/18 03:21:04;;;;;;;3.85;3.03;;;;;;;;;;5052810;28;20071;-66
2023/03/18 03:23:30;;;;;;;5.90;3.60;;;;;;;;;;5053020;28;20025;-66
2023/03/18 03:25:56;;;;;;;4.65;3.08;;;;;;;;;;5052997;28;20442;-65
2023/03/18 03:28:22;;;;;;;4.93;3.55;;;;;;;;;;5052670;28;20072;-66
2023/03/18 03:30:48;;;;;;;4.75;3.42;;;;;;;;;;5052663;28;20084;-66
2023/03/18 03:33:14;;;;;;;3.70;3.15;;;;;;;;;;5052720;28;20013;-66
2023/03/18 03:35:40;;;;;;;6.03;3.50;;;;;;;;;;5052687;28;20017;-66
2023/03/18 03:38:08;;;;;;;5.88;3.58;;;;;;;;;;5052298;28;20037;-66
2023/03/18 03:40:34;;;;;;;4.43;3.10;;;;;;;;;;5052614;28;20026;-66
2023/03/18 03:42:59;;;;;;;5.35;3.45;;;;;;;;;;5052500;28;20028;-66
2023/03/18 03:45:26;;;;;;;4.60;3.55;;;;;;;;;;5052437;28;20108;-65
2023/03/18 03:47:52;;;;;;;4.78;3.65;;;;;;;;;;5051244;28;20033;-66
2023/03/18 03:50:18;;;;;;;4.70;3.42;;;;;;;;;;5052341;28;20028;-65
2023/03/18 03:52:44;;;;;;;7.30;3.63;;;;;;;;;;5051093;28;20028;-66
2023/03/18 03:55:14;;;;;;;4.15;3.42;;;;;;;;;;5052564;28;20028;-66
2023/03/18 03:57:39;;;;;;;3.63;3.10;;;;;;;;;;5052282;28;20025;-65
2023/03/18 04:00:12;;;;;;;5.97;3.83;;;;;;;;;;5052333;28;20025;-65
2023/03/18 04:02:39;;;;;;;4.03;3.30;;;;;;;;;;5050704;28;20029;-66
2023/03/18 04:05:05;;;;;;;5.03;3.80;;;;;;;;;;5052227;28;20473;-66
2023/03/18 04:07:31;;;;;;;5.53;3.40;;;;;;;;;;5052188;28;20036;-66
2023/03/18 04:09:57;;;;;;;7.07;4.10;;;;;;;;;;5052237;28;20106;-66
2023/03/18 04:12:22;;;;;;;4.40;3.28;;;;;;;;;;5052307;28;20024;-66
2023/03/18 04:14:48;;;;;;;4.60;3.42;;;;;;;;;;5052411;28;20113;-66
2023/03/18 04:17:14;;;;;;;4.75;3.55;;;;;;;;;;5052585;28;20388;-66
2023/03/18 04:19:40;;;;;;;5.05;3.35;;;;;;;;;;5052476;28;20039;-67
2023/03/18 04:22:06;;;;;;;6.20;3.58;;;;;;;;;;5052236;28;20058;-65
2023/03/18 04:24:31;;;;;;;5.25;3.20;;;;;;;;;;5052105;28;20064;-65
2023/03/18 04:26:58;;;;;;;5.75;3.13;;;;;;;;;;5052019;28;20029;-66
2023/03/18 04:29:24;;;;;;;4.75;3.53;;;;;;;;;;5051987;28;20025;-65
2023/03/18 04:31:50;;;;;;;4.90;3.35;;;;;;;;;;5052026;28;20025;-65
2023/03/18 04:34:16;;;;;;;4.80;3.63;;;;;;;;;;5051920;28;20028;-66
2023/03/18 04:36:41;;;;;;;5.00;3.47;;;;;;;;;;5051944;28;20021;-65
2023/03/18 04:39:08;;;;;;;4.05;2.92;;;;;;;;;;5051738;28;20052;-65
2023/03/18 04:41:36;;;;;;;4.72;3.30;;;;;;;;;;5052185;28;20048;-65
2023/03/18 04:44:02;;;;;;;4.82;3.50;;;;;;;;;;5052146;28;20021;-65
2023/03/18 04:46:29;;;;;;;3.88;3.35;;;;;;;;;;5051773;28;20021;-65
2023/03/18 04:48:57;;;;;;;4.97;3.80;;;;;;;;;;5052059;28;20067;-66
2023/03/18 04:51:23;;;;;;;4.38;3.35;;;;;;;;;;5051891;28;20080;-65
2023/03/18 04:53:49;;;;;;;5.05;3.38;;;;;;;;;;5051684;28;20040;-65
2023/03/18 04:56:15;;;;;;;5.90;3.35;;;;;;;;;;5051773;28;20030;-66
2023/03/18 04:58:40;;;;;;;7.82;3.90;;;;;;;;;;5051979;28;20113;-66
2023/03/18 05:01:06;;;;;;;6.25;3.67;;;;;;;;;;5051817;28;20040;-66
2023/03/18 05:03:31;;;;;;;6.30;3.63;;;;;;;;;;5051722;28;20029;-66
2023/03/18 05:05:57;;;;;;;4.60;3.22;;;;;;;;;;5051682;28;20029;-66
2023/03/18 05:08:23;;;;;;;4.13;3.20;;;;;;;;;;5051674;28;20044;-66
2023/03/18 05:10:49;;;;;;;4.45;3.35;;;;;;;;;;5051750;28;20028;-66
2023/03/18 05:13:16;;;;;;;5.60;3.72;;;;;;;;;;5051911;28;20440;-66
2023/03/18 05:15:42;;;;;;;4.32;3.45;;;;;;;;;;5052729;28;20393;-66
2023/03/18 05:18:08;;;;;;;4.57;3.00;;;;;;;;;;5055466;28;20032;-66
2023/03/18 05:20:34;;;;;;;4.00;3.30;;;;;;;;;;5055156;28;20048;-66
2023/03/18 05:23:00;;;;;;;4.35;3.40;;;;;;;;;;5055040;28;20610;-65
2023/03/18 05:25:27;;;;;;;5.00;3.28;;;;;;;;;;5054921;28;20040;-66
2023/03/18 05:27:53;;;;;;;4.57;3.58;;;;;;;;;;5054936;28;20576;-66
2023/03/18 05:30:19;;;;;;;4.70;3.40;;;;;;;;;;5054928;28;20508;-66
2023/03/18 05:32:46;;;;;;;3.90;3.50;;;;;;;;;;5054839;28;20392;-66
2023/03/18 05:35:12;;;;;;;3.95;3.42;;;;;;;;;;5054887;28;20028;-66
2023/03/18 05:37:38;;;;;;;4.05;3.30;;;;;;;;;;5054794;28;20057;-66
2023/03/18 05:40:08;;;;;;;5.57;3.40;;;;;;;;;;5054595;28;20076;-65
2023/03/18 05:42:35;;;;;;;5.72;3.55;;;;;;;;;;5054704;28;20067;-66
2023/03/18 05:45:01;;;;;;;5.10;3.63;;;;;;;;;;5054643;28;20457;-66
2023/03/18 05:47:27;;;;;;;5.32;3.70;;;;;;;;;;5054542;28;20067;-66
2023/03/18 05:49:52;;;;;;;4.38;3.20;;;;;;;;;;5054837;28;20033;-66
2023/03/18 05:52:18;;;;;;;4.80;3.97;;;;;;;;;;5054588;28;20116;-66
2023/03/18 05:54:44;;;;;;;7.28;3.60;;;;;;;;;;5053231;28;20518;-65
2023/03/18 05:57:10;;;;;;;5.82;3.67;;;;;;;;;;5054396;28;20488;-65
2023/03/18 05:59:35;;;;;;;5.43;3.60;;;;;;;;;;5054608;28;20037;-64
2023/03/18 06:02:02;;;;;;;7.40;3.40;;;;;;;;;;5054315;28;20487;-65
2023/03/18 06:04:27;;;;;;;6.55;3.70;;;;;;;;;;5054519;28;20029;-65
2023/03/18 06:06:54;;;;;;;5.03;3.88;;;;;;;;;;5054227;28;20469;-65
2023/03/18 06:09:19;;;;;;;4.72;3.33;;;;;;;;;;5054189;28;20517;-65
2023/03/18 06:11:45;;;;;;;5.95;3.38;;;;;;;;;;5054119;28;20025;-66
2023/03/18 06:14:11;;;;;;;4.97;3.42;;;;;;;;;;5054121;28;20021;-65
2023/03/18 06:16:37;;;;;;;4.38;3.15;;;;;;;;;;5054417;28;20384;-65
2023/03/18 06:19:03;;;;;;;5.20;3.65;;;;;;;;;;5054035;28;20021;-64
2023/03/18 06:21:31;;;;;;;4.07;3.25;;;;;;;;;;5054001;28;20031;-65
2023/03/18 06:23:57;;;;;;;4.75;3.60;;;;;;;;;;5054204;28;20119;-65
2023/03/18 06:26:23;;;;;;;3.88;3.33;;;;;;;;;;5053414;28;20068;-65
2023/03/18 06:28:49;;;;;;;6.05;3.67;;;;;;;;;;5053776;28;20060;-65
2023/03/18 06:31:15;;;;;;;4.68;3.75;;;;;;;;;;5053813;28;20036;-65
2023/03/18 06:33:41;;;;;;;4.60;3.45;;;;;;;;;;5052750;28;20369;-66
2023/03/18 06:36:07;;;;;;;4.72;3.65;;;;;;;;;;5053800;28;20021;-67
2023/03/18 06:38:33;;;;;;;5.38;3.72;;;;;;;;;;5053594;28;20070;-66
2023/03/18 06:41:00;;;;;;;5.30;3.60;;;;;;;;;;5053795;28;20421;-67
2023/03/18 06:43:29;;;;;;;4.85;3.30;;;;;;;;;;5052273;28;20029;-65
2023/03/18 06:45:55;;;;;;;4.78;3.65;;;;;;;;;;5053442;28;20496;-66
2023/03/18 06:48:22;;;;;;;4.95;3.55;;;;;;;;;;5053570;28;20029;-66
2023/03/18 06:50:48;;;;;;;5.70;3.78;;;;;;;;;;5053270;28;20021;-67
2023/03/18 06:53:14;;;;;;;4.95;3.65;;;;;;;;;;5053292;28;20025;-66
2023/03/18 06:55:40;;;;;;;3.78;3.20;;;;;;;;;;5053602;28;20036;-66
2023/03/18 06:58:06;;;;;;;4.22;3.28;;;;;;;;;;5053254;28;20017;-66
2023/03/18 07:00:32;;;;;;;5.57;4.05;;;;;;;;;;5053117;28;20021;-66
2023/03/18 07:02:59;;;;;;;4.38;3.58;;;;;;;;;;5053105;28;20469;-66
2023/03/18 07:05:25;;;;;;;4.88;3.67;;;;;;;;;;5053170;28;20054;-66
2023/03/18 07:07:50;;;;;;;7.07;3.67;;;;;;;;;;5053217;28;20071;-66
2023/03/18 07:10:23;;;;;;;5.40;3.55;;;;;;;;;;5053013;28;20029;-66
2023/03/18 07:12:49;;;;;;;4.15;3.45;;;;;;;;;;5053031;28;20539;-65
2023/03/18 07:15:15;;;;;;;4.90;3.45;;;;;;;;;;5053061;28;20060;-67
2023/03/18 07:17:42;;;;;;;4.38;3.70;;;;;;;;;;5052917;28;20025;-66
2023/03/18 07:20:09;;;;;;;4.88;3.50;;;;;;;;;;5052866;28;20029;-66
2023/03/18 07:22:36;;;;;;;5.55;3.25;;;;;;;;;;5052849;28;20492;-66
2023/03/18 07:25:02;;;;;;;4.47;3.83;;;;;;;;;;5052821;28;20036;-65
2023/03/18 07:27:28;;;;;;;4.45;3.67;;;;;;;;;;5052683;28;20060;-65
2023/03/18 07:29:54;;;;;;;4.80;3.83;;;;;;;;;;5052740;28;20091;-65
2023/03/18 07:32:20;;;;;;;5.38;3.63;;;;;;;;;;5052565;28;20017;-66
2023/03/18 07:34:47;;;;;;;6.05;3.70;;;;;;;;;;5052697;28;20428;-65
2023/03/18 07:37:13;;;;;;;5.47;3.45;;;;;;;;;;5051845;28;20032;-66
2023/03/18 07:39:39;;;;;;;4.68;3.40;;;;;;;;;;5051152;28;20493;-65
2023/03/18 07:42:05;;;;;;;5.30;3.42;;;;;;;;;;5052472;28;20028;-64
2023/03/18 07:44:31;;;;;;;3.88;3.22;;;;;;;;;;5052629;28;20465;-64
2023/03/18 07:46:59;;;;;;;6.55;3.60;;;;;;;;;;5052309;28;20154;-64
2023/03/18 07:49:25;;;;;;;4.82;3.78;;;;;;;;;;5051196;28;20118;-66
2023/03/18 07:51:51;;;;;;;4.97;3.53;;;;;;;;;;5052651;28;20488;-65
2023/03/18 07:54:16;;;;;;;5.28;3.78;;;;;;;;;;5052256;28;20029;-65
2023/03/18 07:56:43;;;;;;;4.85;3.63;;;;;;;;;;5052230;28;20033;-67
2023/03/18 07:59:09;;;;;;;4.88;3.85;;;;;;;;;;5052163;28;20035;-65
2023/03/18 08:01:35;;;;;;;5.05;3.35;;;;;;;;;;5052285;28;20021;-64
2023/03/18 08:04:01;;;;;;;5.65;3.90;;;;;;;;;;5052270;28;20077;-65
2023/03/18 08:06:26;;;;;;;3.92;3.35;;;;;;;;;;5052253;28;20057;-65
2023/03/18 08:08:52;;;;;;;4.00;3.58;;;;;;;;;;5052176;28;20451;-65
2023/03/18 08:11:17;;;;;;;6.60;3.83;;;;;;;;;;5052215;28;20036;-66
2023/03/18 08:13:43;;;;;;;4.45;3.38;;;;;;;;;;5052025;28;20033;-64
2023/03/18 08:16:09;;;;;;;5.35;3.80;;;;;;;;;;5052001;28;20033;-65
2023/03/18 08:18:35;;;;;;;4.50;3.75;;;;;;;;;;5052138;28;20108;-67
2023/03/18 08:21:01;;;;;;;5.63;3.40;;;;;;;;;;5051866;28;20082;-66
2023/03/18 08:23:26;;;;;;;4.90;3.72;;;;;;;;;;5052096;28;20021;-66
2023/03/18 08:25:52;;;;;;;5.22;3.40;;;;;;;;;;5051929;28;20104;-66
2023/03/18 08:28:18;;;;;;;4.13;3.70;;;;;;;;;;5051907;28;20041;-66
2023/03/18 08:30:44;;;;;;;4.43;3.63;;;;;;;;;;5052189;28;20128;-66
2023/03/18 08:33:09;;;;;;;4.10;3.10;;;;;;;;;;5051952;28;20512;-66
2023/03/18 08:35:35;;;;;;;5.82;3.67;;;;;;;;;;5051764;28;20059;-65
2023/03/18 08:38:01;;;;;;;6.47;3.50;;;;;;;;;;5051936;28;20116;-65
2023/03/18 08:40:27;;;;;;;6.97;3.80;;;;;;;;;;5051780;28;20385;-64
2023/03/18 08:42:53;;;;;;;4.97;3.20;;;;;;;;;;5051987;28;20354;-65
2023/03/18 08:45:19;;;;;;;4.65;3.40;;;;;;;;;;5051975;28;20036;-65
2023/03/18 08:47:45;;;;;;;4.47;3.50;;;;;;;;;;5051949;28;20112;-65
2023/03/18 08:50:13;;;;;;;4.65;3.60;;;;;;;;;;5054843;28;20096;-65
2023/03/18 08:52:40;;;;;;;5.75;4.20;;;;;;;;;;5054287;28;20021;-65
2023/03/18 08:55:06;;;;;;;3.65;3.10;;;;;;;;;;5055349;28;20032;-65
2023/03/18 08:57:33;;;;;;;5.47;3.50;;;;;;;;;;5055440;28;20632;-65
2023/03/18 08:59:59;;;;;;;4.85;3.40;;;;;;;;;;5055674;28;20483;-65
2023/03/18 09:02:26;;;;;;;4.45;3.50;;;;;;;;;;5055697;28;20017;-65
2023/03/18 09:04:53;;;;;;;5.28;3.70;;;;;;;;;;5055508;28;20029;-64
2023/03/18 09:07:18;;;;;;;4.47;3.20;;;;;;;;;;5055261;28;20036;-64
2023/03/18 09:09:44;;;;;;;5.22;3.58;;;;;;;;;;5055272;28;20021;-65
2023/03/18 09:12:11;;;;;;;4.32;3.30;;;;;;;;;;5055541;28;20028;-65
2023/03/18 09:14:37;;;;;;;4.38;3.40;;;;;;;;;;5055084;28;20070;-65
2023/03/18 09:17:03;;;;;;;5.43;3.90;;;;;;;;;;5055383;28;20087;-65
2023/03/18 09:19:29;;;;;;;4.85;3.33;;;;;;;;;;5055064;28;20020;-65
2023/03/18 09:21:55;;;;;;;5.15;3.45;;;;;;;;;;5055372;28;20036;-66
2023/03/18 09:24:20;;;;;;;4.00;3.40;;;;;;;;;;5054897;28;20481;-66
2023/03/18 09:26:46;;;;;;;4.63;3.13;;;;;;;;;;5054906;28;20397;-66
2023/03/18 09:29:12;;;;;;;4.28;3.30;;;;;;;;;;5053668;28;20025;-66
2023/03/18 09:31:37;;;;;;;4.07;3.22;;;;;;;;;;5053639;28;20499;-65
2023/03/18 09:34:03;;;;;;;4.40;3.47;;;;;;;;;;5053416;28;20025;-65
2023/03/18 09:36:28;;;;;;;4.97;3.47;;;;;;;;;;5054764;28;20035;-65
2023/03/18 09:38:54;;;;;;;4.28;3.20;;;;;;;;;;5054679;28;20083;-65
2023/03/18 09:41:38;;;;;;;3.97;3.30;;;;;;;;;;5054714;28;20641;-66
2023/03/18 09:44:24;;;;;;;3.70;3.30;;;;;;;;;;5054731;28;20028;-65
2023/03/18 09:47:01;;;;;;;5.13;3.17;;;;;;;;;;5054537;28;20064;-65
2023/03/18 09:49:52;;;;;;;4.13;3.45;;;;;;;;;;5054149;28;20033;-65
2023/03/18 09:52:40;;;;;;;4.00;3.20;;;;;;;;;;5054478;28;20037;-65
2023/03/18 09:55:28;;;;;;;3.50;3.00;;;;;;;;;;5054619;28;20111;-66
2023/03/18 09:58:02;;;;;;;4.45;3.28;;;;;;;;;;5054563;28;20032;-65
2023/03/18 10:00:36;;;;;;;4.10;3.20;;;;;;;;;;5052485;28;20063;-65
2023/03/18 10:03:31;;;;;;;3.33;2.92;;;;;;;;;;5054427;28;20036;-66
2023/03/18 10:06:06;;;;;;;3.33;3.00;;;;;;;;;;5054262;28;20120;-65
2023/03/18 10:08:43;;;;;;;4.25;3.22;;;;;;;;;;5054268;28;20025;-65
2023/03/18 10:11:41;;;;;;;5.57;3.20;;;;;;;;;;5054337;28;20078;-65
2023/03/18 10:14:25;;;;;;;4.10;3.03;;;;;;;;;;5054059;28;20025;-66
2023/03/18 10:17:11;;;;;;;5.28;3.20;;;;;;;;;;5054173;28;20036;-65
2023/03/18 10:19:45;;;;;;;3.92;3.10;;;;;;;;;;5054072;28;20021;-66
2023/03/18 10:22:16;;;;;;;3.90;3.13;;;;;;;;;;5054059;28;20024;-65
2023/03/18 10:24:54;;;;;;;3.67;2.80;;;;;;;;;;5054323;28;20563;-65
2023/03/18 10:27:37;;;;;;;5.15;3.20;;;;;;;;;;5053881;28;20039;-65
2023/03/18 10:30:27;;;;;;;4.05;3.00;;;;;;;;;;5054193;28;20029;-65
2023/03/18 10:33:08;;;;;;;3.90;3.05;;;;;;;;;;5050541;28;20029;-64
2023/03/18 10:35:44;;;;;;;3.60;3.25;;;;;;;;;;5053938;28;20108;-65
2023/03/18 10:38:38;;;;;;;3.65;2.72;;;;;;;;;;5053799;28;20025;-65
2023/03/18 10:41:19;;;;;;;4.00;3.13;;;;;;;;;;5052678;28;20041;-65
2023/03/18 10:43:48;;;;;;;4.20;2.92;;;;;;;;;;5053567;28;20477;-65
2023/03/18 10:46:16;;;;;;;4.25;3.15;;;;;;;;;;5053749;28;20112;-65
2023/03/18 10:48:46;;;;;;;3.88;3.03;;;;;;;;;;5053423;28;20040;-65
2023/03/18 10:51:28;;;;;;;3.40;3.00;;;;;;;;;;5053793;28;20035;-65
2023/03/18 10:53:59;;;;;;;4.28;3.22;;;;;;;;;;5053467;28;20025;-65
2023/03/18 10:56:24;;;;;;;4.93;3.28;;;;;;;;;;5053405;28;20087;-65
2023/03/18 10:58:51;;;;;;;4.43;3.08;;;;;;;;;;5053634;28;20025;-65
2023/03/18 11:01:19;;;;;;;4.05;3.03;;;;;;;;;;5053217;28;20021;-65
2023/03/18 11:03:49;;;;;;;3.70;3.28;;;;;;;;;;5053537;28;20074;-65
2023/03/18 11:06:24;;;;;;;4.43;3.57;;;;;;;;;;5053250;28;20032;-65
2023/03/18 11:09:00;;;;;;;5.80;3.53;;;;;;;;;;5053362;28;20071;-64
2023/03/18 11:11:31;;;;;;;5.30;3.65;;;;;;;;;;5053384;28;20025;-65
2023/03/18 11:14:00;;;;;;;4.63;3.13;;;;;;;;;;5053124;28;20543;-65
2023/03/18 11:16:49;;;;;;;5.03;3.58;;;;;;;;;;5053069;28;20050;-66
2023/03/18 11:19:24;;;;;;;5.75;3.05;;;;;;;;;;5052959;28;20528;-65
2023/03/18 11:22:00;;;;;;;4.13;3.17;;;;;;;;;;5052922;28;20109;-65
2023/03/18 11:24:43;;;;;;;4.45;3.35;;;;;;;;;;5053104;28;20032;-65
2023/03/18 11:27:34;;;;;;;4.68;3.35;;;;;;;;;;5052917;28;20032;-64
2023/03/18 11:30:18;;;;;;;3.83;3.30;;;;;;;;;;5049408;28;20071;-64
2023/03/18 11:32:53;;;;;;;3.65;3.20;;;;;;;;;;5052695;28;20381;-64
2023/03/18 11:35:23;;;;;;;3.95;3.15;;;;;;;;;;5052630;28;20087;-64
2023/03/18 11:37:49;;;;;;;;;;;;;;;;;;5053036;28;20036;-63
2023/03/18 11:40:18;;;;;;;5.18;3.50;;;;;;;;;;5052386;28;20032;-63
2023/03/18 11:42:53;;;;;;;3.78;3.33;;;;;;;;;;5052576;28;20028;-63
2023/03/18 11:45:25;;;;;;;4.85;3.90;;;;;;;;;;5052489;28;20040;-63
2023/03/18 11:47:52;;;;;;;4.85;3.25;;;;;;;;;;5052375;28;20025;-63
2023/03/18 11:50:20;;;;;;;4.22;3.30;;;;;;;;;;5052444;28;20032;-62
2023/03/18 11:53:15;;;;;;;4.40;3.30;;;;;;;;;;5052460;28;20028;-64
2023/03/18 11:55:55;;;;;;;4.30;3.40;;;;;;;;;;5052226;28;20120;-63
2023/03/18 11:58:30;;;;;;;3.78;3.30;;;;;;;;;;5052408;28;20032;-63
2023/03/18 12:01:19;;;;;;;4.45;3.47;;;;;;;;;;5050577;28;20025;-64
2023/03/18 12:04:22;;;;;;;5.50;3.75;;;;;;;;;;5043673;28;20389;-64
2023/03/18 12:07:11;;;;;;;6.00;3.65;;;;;;;;;;5050783;28;20429;-64
2023/03/18 12:09:55;;;;;;;4.85;3.70;;;;;;;;;;5050493;28;20052;-64
2023/03/18 12:13:02;;;;;;;4.53;3.42;;;;;;;;;;5050934;28;20021;-65
2023/03/18 12:16:09;;;;;;;7.03;3.72;;;;;;;;;;5051240;28;20044;-65
2023/03/18 12:18:41;;;;;;;5.47;3.42;;;;;;;;;;5038392;28;20036;-64
2023/03/18 12:21:20;;;;;;;4.45;3.58;;;;;;;;;;5050235;28;20021;-64
2023/03/18 12:24:23;;;;;;;4.32;3.42;;;;;;;;;;5052894;28;20021;-64
2023/03/18 12:27:18;;;;;;;4.70;3.70;;;;;;;;;;5044656;28;20075;-64
2023/03/18 12:29:59;;;;;;;5.78;3.97;;;;;;;;;;5046550;28;20079;-64
2023/03/18 12:32:34;;;;;;;5.35;3.75;;;;;;;;;;5056363;28;20048;-64
2023/03/18 12:35:29;;;;;;;4.45;3.60;;;;;;;;;;5056098;28;20013;-64
2023/03/18 12:38:23;;;;;;;3.83;3.40;;;;;;;;;;5050805;28;20036;-64
2023/03/18 12:40:55;;;;;;;8.43;3.75;;;;;;;;;;5055753;28;20587;-66
2023/03/18 12:43:23;;;;;;;4.97;3.60;;;;;;;;;;5053878;28;20025;-64
2023/03/18 12:45:56;;;;;;;7.53;4.30;;;;;;;;;;5055838;28;20083;-64
2023/03/18 12:48:33;;;;;;;5.88;4.03;;;;;;;;;;5054830;28;20032;-64
2023/03/18 12:51:17;;;;;;;5.80;3.97;;;;;;;;;;5055110;28;20035;-64
2023/03/18 12:53:51;;;;;;;6.63;3.95;;;;;;;;;;5053818;28;20025;-64
2023/03/18 12:56:24;;;;;;;8.80;4.20;;;;;;;;;;5053162;28;20401;-64
2023/03/18 12:59:02;;;;;;;6.75;3.80;;;;;;;;;;5053939;28;20033;-64
2023/03/18 13:01:29;;;;;;;6.30;4.10;;;;;;;;;;5054189;28;20163;-64
2023/03/18 13:04:00;;;;;;;4.82;4.07;;;;;;;;;;5054141;28;20037;-64
2023/03/18 13:06:40;;;;;;;6.28;4.00;;;;;;;;;;5055683;28;20082;-64
2023/03/18 13:09:31;;;;;;;4.70;3.65;;;;;;;;;;5055410;28;20033;-64
2023/03/18 13:11:57;;;;;;;3.92;3.53;;;;;;;;;;5055413;28;20032;-64
2023/03/18 13:14:57;;;;;;;5.15;3.70;;;;;;;;;;5055308;28;20381;-64
2023/03/18 13:17:31;;;;;;;5.55;3.72;;;;;;;;;;5055234;28;20029;-64
2023/03/18 13:20:03;;;;;;;5.40;3.97;;;;;;;;;;5055502;28;20028;-64
2023/03/18 13:23:01;;;;;;;5.35;3.95;;;;;;;;;;5055091;28;20476;-64
2023/03/18 13:25:57;;;;;;;7.32;3.88;;;;;;;;;;5052484;28;20048;-64
2023/03/18 13:28:46;;;;;;;6.15;4.07;;;;;;;;;;5055294;28;20029;-65
2023/03/18 13:31:46;;;;;;;5.97;3.88;;;;;;;;;;5054560;28;20424;-64
2023/03/18 13:34:30;;;;;;;5.00;4.03;;;;;;;;;;5047557;28;20048;-64
2023/03/18 13:37:26;;;;;;;4.80;3.80;;;;;;;;;;5054112;28;20036;-64
2023/03/18 13:39:58;;;;;;;5.78;4.05;;;;;;;;;;5054643;28;20048;-64
2023/03/18 13:42:33;;;;;;;5.40;3.97;;;;;;;;;;5054740;28;20072;-65
2023/03/18 13:45:07;;;;;;;6.43;4.03;;;;;;;;;;5054936;28;20389;-66
2023/03/18 13:47:39;;;;;;;5.03;4.07;;;;;;;;;;5054902;28;20040;-66
2023/03/18 13:50:20;;;;;;;5.57;4.28;;;;;;;;;;5054852;28;20029;-65
2023/03/18 13:52:47;;;;;;;5.18;4.15;;;;;;;;;;5054891;28;20025;-65
2023/03/18 13:55:12;;;;;;;6.97;3.88;;;;;;;;;;5054485;28;20113;-65
2023/03/18 13:57:54;;;;;;;4.93;4.03;;;;;;;;;;5054779;28;20114;-65
2023/03/18 14:00:29;;;;;;;6.40;4.45;;;;;;;;;;5054377;28;20036;-64
2023/03/18 14:03:18;;;;;;;7.50;4.68;;;;;;;;;;5054450;28;20025;-66
2023/03/18 14:05:53;;;;;;;5.20;4.07;;;;;;;;;;5054335;28;20083;-64
2023/03/18 14:08:37;;;;;;;5.63;3.80;;;;;;;;;;5054206;28;20048;-65
2023/03/18 14:11:22;;;;;;;5.72;4.32;;;;;;;;;;5054263;28;20056;-65
2023/03/18 14:13:51;;;;;;;7.25;4.45;;;;;;;;;;5050069;28;20512;-66
2023/03/18 14:16:21;;;;;;;5.68;4.30;;;;;;;;;;5054098;28;20032;-66
2023/03/18 14:19:05;;;;;;;4.90;3.92;;;;;;;;;;5054438;28;20112;-65
2023/03/18 14:21:33;;;;;;;6.15;4.38;;;;;;;;;;5054288;28;20033;-66
2023/03/18 14:24:16;;;;;;;5.60;4.63;;;;;;;;;;5054023;28;20060;-66
2023/03/18 14:26:57;;;;;;;6.13;4.53;;;;;;;;;;5054237;28;20063;-66
2023/03/18 14:29:39;;;;;;;5.70;4.43;;;;;;;;;;5053869;28;20028;-66
2023/03/18 14:32:35;;;;;;;5.20;4.70;;;;;;;;;;5053801;28;20074;-65
2023/03/18 14:35:27;;;;;;;5.40;4.50;;;;;;;;;;5054038;28;20102;-65
2023/03/18 14:38:19;;;;;;;6.20;4.35;;;;;;;;;;5054003;28;20103;-66
2023/03/18 14:40:47;;;;;;;5.60;4.32;;;;;;;;;;5053924;28;20025;-66
2023/03/18 14:43:35;;;;;;;6.47;4.35;;;;;;;;;;5053605;28;20040;-66
2023/03/18 14:46:16;;;;;;;7.20;4.13;;;;;;;;;;5050355;28;20036;-66
2023/03/18 14:48:42;;;;;;;6.13;4.30;;;;;;;;;;5053679;28;20033;-67
2023/03/18 14:51:17;;;;;;;5.97;4.25;;;;;;;;;;5053760;28;20550;-66
2023/03/18 14:53:47;;;;;;;6.65;4.57;;;;;;;;;;5053368;28;20032;-66
2023/03/18 14:56:22;;;;;;;5.88;4.55;;;;;;;;;;5053593;28;20036;-66
2023/03/18 14:58:55;;;;;;;5.25;4.13;;;;;;;;;;5053296;28;20125;-66
2023/03/18 15:01:33;;;;;;;5.88;3.90;;;;;;;;;;5053576;28;20024;-66
2023/03/18 15:04:00;;;;;;;5.28;4.10;;;;;;;;;;5053485;28;20029;-66
2023/03/18 15:06:27;;;;;;;5.13;3.95;;;;;;;;;;5053137;28;20020;-66
2023/03/18 15:08:59;;;;;;;6.00;4.50;;;;;;;;;;5053090;28;20368;-66